AYWK

Wewak International Airport

Wewak, Papua New Guinea

AYWK 102300Z 00000KT 9999 -SHRA FEW018 SCT040 OVC140 26/25 Q1010

Observed Flight Rules
Dec-10 @ 23:00 UTC (an hour ago) Visual Flight Rules
Wind Visibility Clouds Conditions
Calm 10,000+ meters
  • Few at 1,800' AGL
  • Scattered at 4,000' AGL
  • Overcast at 14,000' AGL
  • Light Rain
Temperatures Readings
Current 26°C / 79°F
Dewpoint 25°C / 77°F
Humidity 94%
Altimeter 29.82" Hg
Pressure 1010 hPa
Elevation 6
Observed Flight Rules
Dec-10 @ 23:00 UTC
(an hour ago)
VFR
Wind Visibility
Calm 10,000+ meters
Clouds
  • Few at 1,800' AGL
  • Scattered at 4,000' AGL
  • Overcast at 14,000' AGL
Conditions
  • Light Rain
Temperature Dewpoint
26°C / 79°F 25°C / 77°F
Humidity Altimeter Pressure
94% 29.82" Hg 1010 hPa